createdAt,value
2022-10-14T00:01:12.465Z,53.60
2022-10-14T00:04:01.232Z,51.38
2022-10-14T00:06:31.671Z,52.67
2022-10-14T00:09:01.890Z,50.42
2022-10-14T00:11:32.900Z,49.65
2022-10-14T00:14:06.551Z,51.20
2022-10-14T00:16:37.133Z,50.72
2022-10-14T00:19:06.128Z,45.88
2022-10-14T00:21:35.665Z,48.35
2022-10-14T00:24:03.436Z,45.80
2022-10-14T00:26:34.249Z,49.35
2022-10-14T00:29:05.081Z,46.55
2022-10-14T00:31:33.801Z,48.13
2022-10-14T00:34:01.613Z,47.58
2022-10-14T00:36:29.449Z,47.22
2022-10-14T00:38:57.913Z,48.42
2022-10-14T00:41:28.033Z,48.40
2022-10-14T00:43:59.629Z,48.03
2022-10-14T00:46:30.526Z,49.08
2022-10-14T00:48:59.785Z,48.00
2022-10-14T00:51:28.348Z,48.33
2022-10-14T00:53:56.824Z,48.85
2022-10-14T00:56:29.766Z,50.65
2022-10-14T00:58:59.015Z,47.42
2022-10-14T01:01:26.788Z,49.45
2022-10-14T01:03:55.890Z,49.22
2022-10-14T01:06:37.881Z,47.83
2022-10-14T01:09:14.407Z,49.95
2022-10-14T01:12:09.774Z,48.13
2022-10-14T01:14:52.301Z,48.47
2022-10-14T01:17:32.010Z,48.47
2022-10-14T01:20:32.407Z,45.72
2022-10-14T01:23:14.854Z,46.08
2022-10-14T01:25:56.590Z,46.67
2022-10-14T01:28:35.413Z,46.55
2022-10-14T01:31:07.850Z,46.80
2022-10-14T01:33:38.781Z,46.63
2022-10-14T01:36:12.140Z,49.05
2022-10-14T01:38:45.786Z,47.67
2022-10-14T01:41:18.981Z,46.63
2022-10-14T01:43:50.562Z,46.17
2022-10-14T01:46:23.080Z,45.80
2022-10-14T01:48:55.618Z,47.10
2022-10-14T01:53:58.813Z,44.70
2022-10-14T01:58:58.202Z,45.50
2022-10-14T02:01:28.000Z,48.08
2022-10-14T02:03:55.825Z,44.70
2022-10-14T02:06:28.179Z,45.83
2022-10-14T02:09:09.635Z,45.00
2022-10-14T02:11:46.414Z,43.95
2022-10-14T02:14:25.613Z,45.63
2022-10-14T02:17:01.251Z,46.28
2022-10-14T02:19:34.286Z,46.40
2022-10-14T02:22:07.627Z,46.08
2022-10-14T02:24:38.428Z,46.65
2022-10-14T02:27:09.975Z,44.30
2022-10-14T02:29:39.830Z,45.58
2022-10-14T02:32:11.228Z,44.45
2022-10-14T02:34:39.073Z,44.58
2022-10-14T02:37:08.258Z,41.35
2022-10-14T02:39:40.022Z,43.63
2022-10-14T02:42:08.021Z,40.70
2022-10-14T02:44:35.879Z,43.78
2022-10-14T02:47:04.421Z,39.15
2022-10-14T02:49:33.555Z,42.40
2022-10-14T02:52:01.290Z,41.58
2022-10-14T02:54:29.441Z,41.65
2022-10-14T02:56:57.177Z,41.45
2022-10-14T02:59:25.092Z,41.78
2022-10-14T03:01:53.190Z,41.70
2022-10-14T03:04:20.905Z,40.60
2022-10-14T03:06:50.129Z,42.85
2022-10-14T03:09:18.113Z,43.88
2022-10-14T03:11:46.545Z,41.13
2022-10-14T03:14:14.584Z,41.08
2022-10-14T03:16:42.710Z,40.90
2022-10-14T03:19:10.732Z,39.38
2022-10-14T03:21:38.618Z,38.83
2022-10-14T03:24:08.505Z,40.25
2022-10-14T03:26:36.241Z,40.58
2022-10-14T03:29:04.480Z,41.83
2022-10-14T03:31:32.275Z,39.83
2022-10-14T03:34:00.054Z,38.95
2022-10-14T03:36:28.040Z,40.72
2022-10-14T03:38:55.879Z,39.88
2022-10-14T03:41:25.080Z,38.70
2022-10-14T03:43:53.333Z,37.45
2022-10-14T03:46:21.289Z,38.92
2022-10-14T03:48:49.040Z,38.30
2022-10-14T03:51:17.310Z,36.63
2022-10-14T03:53:45.687Z,38.45
2022-10-14T03:56:13.516Z,38.20
2022-10-14T03:58:42.741Z,37.85
2022-10-14T04:01:10.700Z,37.10
2022-10-14T04:03:38.561Z,37.58
2022-10-14T04:06:06.860Z,36.30
2022-10-14T04:08:35.076Z,37.03
2022-10-14T04:11:03.050Z,35.78
2022-10-14T04:13:30.801Z,34.40
2022-10-14T04:16:04.046Z,35.38
2022-10-14T04:18:32.036Z,33.72
2022-10-14T04:21:01.241Z,33.17
2022-10-14T04:23:28.986Z,31.95
2022-10-14T04:25:56.967Z,31.73
2022-10-14T04:28:24.958Z,33.72
2022-10-14T04:30:52.654Z,30.75
2022-10-14T04:33:21.996Z,32.88
2022-10-14T04:35:49.785Z,32.08
2022-10-14T04:38:17.561Z,30.95
2022-10-14T04:40:46.209Z,33.03
2022-10-14T04:43:14.074Z,34.50
2022-10-14T04:45:42.653Z,32.33
2022-10-14T04:48:10.560Z,31.15
2022-10-14T04:50:39.928Z,33.22
2022-10-14T04:53:11.948Z,31.45
2022-10-14T04:55:41.352Z,33.10
2022-10-14T04:58:09.458Z,33.08
2022-10-14T05:00:37.321Z,32.65
2022-10-14T05:03:05.410Z,32.55
2022-10-14T05:05:33.347Z,32.15
2022-10-14T05:08:02.709Z,33.28
2022-10-14T05:10:30.832Z,32.47
2022-10-14T05:12:58.601Z,30.77
2022-10-14T05:15:26.321Z,33.85
2022-10-14T05:17:54.390Z,30.98
2022-10-14T05:20:22.102Z,34.22
2022-10-14T05:22:49.815Z,35.45
2022-10-14T05:25:19.251Z,36.25
2022-10-14T05:27:47.082Z,39.03
2022-10-14T05:30:15.462Z,38.20
2022-10-14T05:32:43.412Z,36.92
2022-10-14T05:35:11.621Z,38.33
2022-10-14T05:37:39.510Z,37.35
2022-10-14T05:40:08.948Z,33.40
2022-10-14T05:42:38.205Z,34.58
2022-10-14T05:45:07.034Z,34.58
2022-10-14T05:47:34.857Z,33.95
2022-10-14T05:50:04.491Z,33.05
2022-10-14T05:52:34.292Z,34.55
2022-10-14T05:55:02.587Z,33.70
2022-10-14T05:57:30.329Z,34.58
2022-10-14T05:59:59.537Z,33.83
2022-10-14T06:02:27.482Z,32.80
2022-10-14T06:04:55.223Z,34.50
2022-10-14T06:07:23.402Z,31.42
2022-10-14T06:09:51.328Z,35.70
2022-10-14T06:12:19.270Z,34.35
2022-10-14T06:14:47.409Z,34.30
2022-10-14T06:17:17.715Z,32.75
2022-10-14T06:19:45.477Z,33.95
2022-10-14T06:22:13.381Z,30.95
2022-10-14T06:24:41.294Z,30.25
2022-10-14T06:27:09.082Z,31.02
2022-10-14T06:29:38.528Z,30.10
2022-10-14T06:32:06.619Z,28.95
2022-10-14T06:34:35.846Z,29.65
2022-10-14T06:37:03.813Z,28.58
2022-10-14T06:39:31.667Z,30.17
2022-10-14T06:41:59.361Z,28.60
2022-10-14T06:44:27.382Z,28.00
2022-10-14T06:46:55.213Z,28.77
2022-10-14T06:49:22.909Z,28.55
2022-10-14T06:51:52.201Z,28.83
2022-10-14T06:54:20.043Z,25.95
2022-10-14T06:56:47.729Z,27.55
2022-10-14T06:59:15.720Z,26.27
2022-10-14T07:01:43.614Z,26.65
2022-10-14T07:04:11.556Z,25.92
2022-10-14T07:06:39.420Z,26.88
2022-10-14T07:09:08.651Z,27.75
2022-10-14T07:11:36.362Z,27.33
2022-10-14T07:14:04.529Z,27.45
2022-10-14T07:16:33.196Z,26.00
2022-10-14T07:19:00.922Z,26.00
2022-10-14T07:21:28.883Z,25.50
2022-10-14T07:23:56.881Z,25.23
2022-10-14T07:26:26.013Z,25.95
2022-10-14T07:28:55.423Z,26.08
2022-10-14T07:31:23.305Z,25.10
2022-10-14T07:33:51.064Z,26.17
2022-10-14T07:36:22.583Z,24.80
2022-10-14T07:38:50.940Z,34.80
2022-10-14T07:41:21.542Z,38.83
2022-10-14T07:43:53.021Z,37.10
2022-10-14T07:46:29.607Z,35.35
2022-10-14T07:48:58.828Z,31.25
2022-10-14T07:51:27.244Z,30.25
2022-10-14T07:53:56.123Z,27.88
2022-10-14T07:56:24.356Z,26.88
2022-10-14T07:58:53.600Z,34.58
2022-10-14T08:01:21.559Z,35.92
2022-10-14T08:03:49.843Z,36.78
2022-10-14T08:06:17.882Z,38.53
2022-10-14T08:08:46.033Z,44.53
2022-10-14T08:11:16.503Z,43.67
2022-10-14T08:13:46.216Z,38.60
2022-10-14T08:16:18.605Z,34.35
2022-10-14T08:21:15.878Z,35.25
2022-10-14T08:23:44.003Z,34.95
2022-10-14T08:26:20.660Z,34.88
2022-10-14T08:28:49.160Z,34.58
2022-10-14T08:31:18.676Z,32.03
2022-10-14T08:33:47.150Z,33.13
2022-10-14T08:36:15.776Z,33.08
2022-10-14T08:38:43.700Z,33.03
2022-10-14T08:41:26.657Z,32.50
2022-10-14T08:44:10.558Z,32.00
2022-10-14T08:46:49.385Z,32.72
2022-10-14T08:49:25.932Z,34.80
2022-10-14T08:51:58.480Z,34.15
2022-10-14T08:54:33.097Z,34.15
2022-10-14T08:57:01.845Z,32.88
2022-10-14T08:59:30.121Z,33.53
2022-10-14T09:02:04.809Z,32.90
2022-10-14T09:04:36.616Z,33.10
2022-10-14T09:07:06.166Z,33.05
2022-10-14T09:09:41.034Z,36.42
2022-10-14T09:12:18.088Z,38.70
2022-10-14T09:14:53.705Z,38.08
2022-10-14T09:17:27.445Z,37.20
2022-10-14T09:20:05.146Z,33.42
2022-10-14T09:22:33.059Z,34.58
2022-10-14T09:25:01.395Z,37.65
2022-10-14T09:27:30.357Z,38.65
2022-10-14T09:30:01.077Z,37.72
2022-10-14T09:32:35.526Z,39.08
2022-10-14T09:35:04.889Z,38.95
2022-10-14T09:37:34.253Z,37.67
2022-10-14T09:40:05.841Z,38.55
2022-10-14T09:42:45.879Z,41.00
2022-10-14T09:45:15.709Z,38.85
2022-10-14T09:47:50.986Z,39.83
2022-10-14T09:50:25.481Z,39.13
2022-10-14T09:52:58.369Z,39.85
2022-10-14T09:55:26.600Z,39.63
2022-10-14T09:58:04.564Z,37.50
2022-10-14T10:00:35.370Z,36.92
2022-10-14T10:03:06.886Z,38.08
2022-10-14T10:05:36.450Z,38.38
2022-10-14T10:08:12.466Z,38.38
2022-10-14T10:10:40.521Z,38.20
2022-10-14T10:13:22.044Z,39.35
2022-10-14T10:15:59.549Z,38.43
2022-10-14T10:18:28.991Z,38.75
2022-10-14T10:21:08.601Z,37.33
2022-10-14T10:23:37.641Z,37.42
2022-10-14T10:26:17.658Z,37.97
2022-10-14T10:28:47.444Z,35.78
2022-10-14T10:31:29.351Z,36.88
2022-10-14T10:34:07.821Z,35.10
2022-10-14T10:36:41.151Z,36.33
2022-10-14T10:39:18.428Z,35.65
2022-10-14T10:42:02.561Z,35.58
2022-10-14T10:44:55.074Z,35.85
2022-10-14T10:47:48.622Z,36.53
2022-10-14T10:50:31.058Z,36.58
2022-10-14T10:53:18.292Z,34.95
2022-10-14T10:55:58.305Z,35.00
2022-10-14T10:58:41.850Z,35.92
2022-10-14T11:01:21.342Z,34.42
2022-10-14T11:04:01.819Z,33.67
2022-10-14T11:06:57.993Z,32.90
2022-10-14T11:09:50.523Z,33.72
2022-10-14T11:12:29.358Z,33.25
2022-10-14T11:15:14.442Z,33.65
2022-10-14T11:17:48.493Z,32.60
2022-10-14T11:20:25.789Z,32.45
2022-10-14T11:23:14.093Z,32.30
2022-10-14T11:25:49.983Z,33.00
2022-10-14T11:28:27.923Z,30.17
2022-10-14T11:31:04.689Z,31.65
2022-10-14T11:33:48.209Z,30.63
2022-10-14T11:36:26.377Z,31.27
2022-10-14T11:39:06.420Z,28.77
2022-10-14T11:41:48.788Z,28.98
2022-10-14T11:44:22.845Z,31.08
2022-10-14T11:47:00.836Z,45.92
2022-10-14T11:49:32.524Z,28.00
2022-10-14T11:52:04.555Z,30.17
2022-10-14T11:54:37.792Z,28.75
2022-10-14T11:57:10.852Z,30.60
2022-10-14T12:00:02.984Z,27.13
2022-10-14T12:02:39.281Z,26.48
2022-10-14T12:05:15.809Z,27.60
2022-10-14T12:07:50.784Z,26.85
2022-10-14T12:10:26.753Z,26.60
2022-10-14T12:12:55.730Z,24.23
2022-10-14T12:15:27.057Z,26.30
2022-10-14T12:17:57.598Z,26.20
2022-10-14T12:20:35.225Z,29.50
2022-10-14T12:23:06.173Z,41.80
2022-10-14T12:25:44.338Z,74.40
2022-10-14T12:28:16.188Z,85.50
2022-10-14T12:30:44.345Z,84.20
2022-10-14T12:33:17.741Z,100.72
2022-10-14T12:35:52.603Z,129.20
2022-10-14T12:40:50.261Z,112.55
2022-10-14T12:43:23.571Z,60.22
2022-10-14T12:46:00.535Z,47.33
2022-10-14T12:48:32.887Z,35.13
2022-10-14T12:53:38.385Z,26.63
2022-10-14T12:56:08.149Z,27.40
2022-10-14T12:58:38.560Z,25.52
2022-10-14T13:01:16.229Z,26.95
2022-10-14T13:03:53.910Z,26.70
2022-10-14T13:06:35.438Z,26.80
2022-10-14T13:09:40.113Z,28.98
2022-10-14T13:12:44.766Z,27.27
2022-10-14T13:15:49.586Z,27.25
2022-10-14T13:18:51.608Z,29.90
2022-10-14T13:21:31.115Z,34.00
2022-10-14T13:24:02.665Z,34.00
2022-10-14T13:26:39.733Z,34.83
2022-10-14T13:29:17.435Z,50.88
2022-10-14T13:31:55.529Z,38.60
2022-10-14T13:34:42.964Z,30.25
2022-10-14T13:37:30.581Z,29.83
2022-10-14T13:40:00.416Z,29.13
2022-10-14T13:42:33.165Z,27.17
2022-10-14T13:45:07.487Z,29.35
2022-10-14T13:47:37.620Z,29.58
2022-10-14T13:50:06.485Z,31.65
2022-10-14T13:52:35.706Z,39.80
2022-10-14T13:55:13.725Z,33.38
2022-10-14T13:58:11.080Z,52.63
2022-10-14T14:00:40.602Z,57.90
2022-10-14T14:03:19.929Z,96.32
2022-10-14T14:05:48.537Z,187.48
2022-10-14T14:08:40.205Z,141.93
2022-10-14T14:11:23.088Z,136.73
2022-10-14T14:14:00.835Z,36.78
2022-10-14T14:16:35.014Z,29.88
2022-10-14T14:19:10.036Z,30.63
2022-10-14T14:21:39.165Z,31.77
2022-10-14T14:24:17.799Z,29.33
2022-10-14T14:26:45.965Z,28.90
2022-10-14T14:29:19.273Z,29.85
2022-10-14T14:32:05.613Z,29.83
2022-10-14T14:34:37.895Z,30.10
2022-10-14T14:40:00.585Z,29.80
2022-10-14T14:42:32.245Z,30.23
2022-10-14T14:45:04.125Z,29.75
2022-10-14T14:47:33.005Z,30.98
2022-10-14T14:50:30.018Z,36.05
2022-10-14T14:52:52.679Z,34.17
2022-10-14T14:55:44.125Z,53.55
2022-10-14T14:58:23.085Z,43.08
2022-10-14T15:00:52.813Z,38.42
2022-10-14T15:03:20.854Z,37.08
2022-10-14T15:05:58.494Z,36.80
2022-10-14T15:08:30.109Z,51.28
2022-10-14T15:10:59.376Z,99.40
2022-10-14T15:13:43.313Z,130.48
2022-10-14T15:16:11.362Z,67.97
2022-10-14T15:18:42.514Z,62.03
2022-10-14T15:21:19.978Z,138.85
2022-10-14T15:24:03.113Z,68.22
2022-10-14T15:26:34.177Z,57.03
2022-10-14T15:29:13.093Z,128.05
2022-10-14T15:31:42.903Z,140.23
2022-10-14T15:34:20.385Z,303.08
2022-10-14T15:36:53.936Z,290.10
2022-10-14T15:39:22.860Z,228.93
2022-10-14T15:41:50.629Z,352.70
2022-10-14T15:44:18.578Z,177.52
2022-10-14T15:47:05.176Z,44.95
2022-10-14T15:49:35.038Z,34.13
2022-10-14T15:52:04.483Z,41.30
2022-10-14T15:54:32.599Z,38.47
2022-10-14T15:57:00.680Z,37.42
2022-10-14T15:59:28.772Z,35.85
2022-10-14T16:01:56.813Z,33.38
2022-10-14T16:04:27.893Z,32.55
2022-10-14T16:06:57.809Z,35.47
2022-10-14T16:09:28.540Z,37.97
2022-10-14T16:11:59.254Z,33.00
2022-10-14T16:14:28.490Z,32.92
2022-10-14T16:16:56.450Z,32.35
2022-10-14T16:19:24.316Z,29.20
2022-10-14T16:21:52.445Z,27.83
2022-10-14T16:24:22.199Z,28.45
2022-10-14T16:26:51.613Z,58.10
2022-10-14T16:29:20.761Z,56.33
2022-10-14T16:31:49.928Z,63.08
2022-10-14T16:34:18.010Z,51.95
2022-10-14T16:36:46.482Z,101.63
2022-10-14T16:39:14.293Z,54.20
2022-10-14T16:41:42.489Z,51.35
2022-10-14T16:44:24.262Z,52.63
2022-10-14T16:47:10.117Z,45.65
2022-10-14T16:49:38.836Z,101.80
2022-10-14T16:52:06.788Z,66.03
2022-10-14T16:54:34.753Z,63.00
2022-10-14T16:57:03.133Z,45.33
2022-10-14T16:59:32.539Z,44.80
2022-10-14T17:02:00.820Z,37.10
2022-10-14T17:04:29.184Z,42.65
2022-10-14T17:06:57.167Z,50.22
2022-10-14T17:11:58.327Z,50.60
2022-10-14T17:14:27.936Z,51.70
2022-10-14T17:16:56.963Z,61.13
2022-10-14T17:19:24.969Z,46.95
2022-10-14T17:21:52.773Z,55.00
2022-10-14T17:24:20.569Z,46.80
2022-10-14T17:26:48.600Z,66.47
2022-10-14T17:29:16.469Z,64.47
2022-10-14T17:31:44.806Z,68.90
2022-10-14T17:34:14.290Z,58.67
2022-10-14T17:36:42.444Z,56.17
2022-10-14T17:39:18.738Z,54.75
2022-10-14T17:44:20.878Z,80.10
2022-10-14T17:46:49.033Z,73.50
2022-10-14T17:49:18.722Z,60.40
2022-10-14T17:51:46.501Z,71.10
2022-10-14T17:54:14.217Z,63.20
2022-10-14T17:56:43.052Z,52.60
2022-10-14T17:59:14.075Z,51.08
2022-10-14T18:04:32.265Z,50.58
2022-10-14T18:07:00.141Z,44.38
2022-10-14T18:09:28.274Z,62.38
2022-10-14T18:12:13.158Z,56.22
2022-10-14T18:14:41.440Z,56.47
2022-10-14T18:17:12.535Z,54.85
2022-10-14T18:19:42.304Z,80.95
2022-10-14T18:22:11.474Z,59.22
2022-10-14T18:24:39.629Z,62.28
2022-10-14T18:27:07.511Z,59.38
2022-10-14T18:29:35.627Z,60.72
2022-10-14T18:32:03.882Z,63.08
2022-10-14T18:34:32.393Z,63.75
2022-10-14T18:37:01.733Z,66.50
2022-10-14T18:39:29.503Z,66.90
2022-10-14T18:41:57.537Z,63.13
2022-10-14T18:44:25.970Z,80.00
2022-10-14T18:46:53.857Z,79.25
2022-10-14T18:49:21.738Z,100.30
2022-10-14T18:51:50.540Z,106.68
2022-10-14T18:54:23.572Z,113.63
2022-10-14T18:56:52.556Z,124.18
2022-10-14T18:59:23.011Z,120.45
2022-10-14T19:01:53.145Z,146.63
2022-10-14T19:04:23.561Z,119.70
2022-10-14T19:06:51.483Z,124.25
2022-10-14T19:09:24.584Z,140.90
2022-10-14T19:11:53.556Z,121.18
2022-10-14T19:14:22.395Z,149.93
2022-10-14T19:16:50.364Z,115.50
2022-10-14T19:19:20.312Z,100.90
2022-10-14T19:21:53.960Z,114.70
2022-10-14T19:24:23.451Z,101.28
2022-10-14T19:26:51.541Z,99.93
2022-10-14T19:29:19.306Z,95.03
2022-10-14T19:31:47.423Z,93.45
2022-10-14T19:34:17.144Z,86.03
2022-10-14T19:36:45.986Z,73.90
2022-10-14T19:39:16.566Z,72.60
2022-10-14T19:41:47.361Z,64.95
2022-10-14T19:44:17.113Z,75.70
2022-10-14T19:46:46.074Z,69.53
2022-10-14T19:49:15.211Z,71.47
2022-10-14T19:51:44.369Z,77.65
2022-10-14T19:54:13.676Z,73.15
2022-10-14T19:56:41.821Z,58.53
2022-10-14T19:59:14.051Z,53.80
2022-10-14T20:01:42.684Z,57.92
2022-10-14T20:04:10.717Z,54.67
2022-10-14T20:06:39.989Z,53.20
2022-10-14T20:09:09.118Z,55.15
2022-10-14T20:11:38.910Z,55.50
2022-10-14T20:14:06.806Z,52.40
2022-10-14T20:16:36.061Z,54.78
2022-10-14T20:19:05.853Z,51.72
2022-10-14T20:21:33.729Z,47.03
2022-10-14T20:24:01.505Z,44.58
2022-10-14T20:26:30.694Z,45.88
2022-10-14T20:28:59.168Z,41.95
2022-10-14T20:31:27.070Z,43.22
2022-10-14T20:33:57.641Z,43.88
2022-10-14T20:36:25.542Z,39.83
2022-10-14T20:38:53.502Z,43.42
2022-10-14T20:41:23.092Z,45.65
2022-10-14T20:43:52.138Z,43.75
2022-10-14T20:46:21.819Z,43.33
2022-10-14T20:48:54.709Z,42.33
2022-10-14T20:51:25.897Z,42.90
2022-10-14T20:54:01.675Z,44.45
2022-10-14T20:56:33.690Z,40.22
2022-10-14T20:59:03.476Z,43.28
2022-10-14T21:01:32.322Z,39.00
2022-10-14T21:04:02.488Z,40.28
2022-10-14T21:06:31.983Z,44.83
2022-10-14T21:09:00.046Z,50.97
2022-10-14T21:11:28.840Z,47.55
2022-10-14T21:13:58.631Z,49.45
2022-10-14T21:16:28.601Z,51.33
2022-10-14T21:18:58.502Z,49.78
2022-10-14T21:21:28.635Z,49.00
2022-10-14T21:23:59.527Z,46.08
2022-10-14T21:26:27.978Z,46.13
2022-10-14T21:28:56.205Z,46.92
2022-10-14T21:31:24.146Z,44.88
2022-10-14T21:33:55.571Z,46.03
2022-10-14T21:36:23.485Z,41.88
2022-10-14T21:38:51.388Z,42.53
2022-10-14T21:41:20.824Z,43.70
2022-10-14T21:43:48.667Z,43.60
2022-10-14T21:46:17.616Z,45.15
2022-10-14T21:48:46.257Z,45.10
2022-10-14T21:51:16.652Z,49.80
2022-10-14T21:53:46.680Z,49.80
2022-10-14T21:56:16.812Z,52.35
2022-10-14T21:58:46.152Z,49.25
2022-10-14T22:01:16.347Z,47.97
2022-10-14T22:03:45.325Z,47.05
2022-10-14T22:06:15.429Z,47.40
2022-10-14T22:08:45.282Z,51.47
2022-10-14T22:11:17.772Z,47.30
2022-10-14T22:16:16.868Z,43.83
2022-10-14T22:18:46.673Z,45.28
2022-10-14T22:21:15.986Z,44.25
2022-10-14T22:23:44.941Z,44.53
2022-10-14T22:26:14.675Z,45.50
2022-10-14T22:28:42.773Z,43.75
2022-10-14T22:31:14.417Z,43.75
2022-10-14T22:33:43.818Z,46.63
2022-10-14T22:36:13.822Z,45.50
2022-10-14T22:38:43.825Z,46.38
2022-10-14T22:41:14.110Z,50.28
2022-10-14T22:43:46.517Z,51.92
2022-10-14T22:46:19.521Z,43.13
2022-10-14T22:48:48.117Z,45.50
2022-10-14T22:51:17.884Z,46.63
2022-10-14T22:53:47.366Z,62.50
2022-10-14T22:56:16.992Z,48.20
2022-10-14T22:58:45.305Z,53.35
2022-10-14T23:01:16.781Z,49.28
2022-10-14T23:03:45.136Z,45.90
2022-10-14T23:06:14.551Z,50.08
2022-10-14T23:08:43.050Z,46.65
2022-10-14T23:11:14.826Z,56.47
2022-10-14T23:13:43.277Z,52.00
2022-10-14T23:16:14.195Z,60.97
2022-10-14T23:18:44.248Z,57.70
2022-10-14T23:21:14.379Z,48.58
2022-10-14T23:23:42.843Z,46.70
2022-10-14T23:26:11.835Z,46.92
2022-10-14T23:28:40.193Z,51.83
2022-10-14T23:31:12.591Z,52.05
2022-10-14T23:33:41.289Z,49.63
2022-10-14T23:36:13.210Z,52.55
2022-10-14T23:41:10.845Z,53.20
2022-10-14T23:43:39.321Z,54.30
2022-10-14T23:46:08.453Z,64.60
2022-10-14T23:48:36.908Z,58.97
2022-10-14T23:51:05.349Z,54.22
2022-10-14T23:53:35.697Z,48.20
2022-10-14T23:56:04.307Z,48.95
2022-10-14T23:58:32.736Z,44.05
